createdAt,value
2022-10-29T00:02:17.822Z,100315.22
2022-10-29T00:04:44.672Z,100302.25
2022-10-29T00:07:11.379Z,100300.63
2022-10-29T00:09:38.106Z,100298.81
2022-10-29T00:12:05.075Z,100319.69
2022-10-29T00:14:31.759Z,100338.22
2022-10-29T00:16:58.485Z,100339.56
2022-10-29T00:19:26.272Z,100339.16
2022-10-29T00:21:53.115Z,100325.31
2022-10-29T00:24:19.845Z,100286.69
2022-10-29T00:26:46.815Z,100290.53
2022-10-29T00:29:13.581Z,100306.31
2022-10-29T00:31:40.315Z,100318.44
2022-10-29T00:34:07.224Z,100292.88
2022-10-29T00:36:33.928Z,100294.88
2022-10-29T00:39:00.660Z,100291.88
2022-10-29T00:41:29.555Z,100282.91
2022-10-29T00:44:14.862Z,100295.16
2022-10-29T00:46:51.639Z,100311.59
2022-10-29T00:49:19.393Z,100399.03
2022-10-29T00:51:47.425Z,100280.38
2022-10-29T00:54:17.089Z,100248.06
2022-10-29T00:56:50.778Z,100293.59
2022-10-29T00:59:18.418Z,100270.88
2022-10-29T01:01:48.542Z,100248.28
2022-10-29T01:04:17.427Z,100257.22
2022-10-29T01:06:45.097Z,100273.13
2022-10-29T01:09:11.802Z,100276.94
2022-10-29T01:11:44.523Z,100244.47
2022-10-29T01:14:23.311Z,100250.41
2022-10-29T01:17:03.866Z,100245.81
2022-10-29T01:19:55.687Z,100213.94
2022-10-29T01:22:35.271Z,100179.94
2022-10-29T01:25:26.542Z,100202.50
2022-10-29T01:28:11.516Z,100184.63
2022-10-29T01:31:01.561Z,100168.84
2022-10-29T01:33:31.122Z,100196.81
2022-10-29T01:36:10.030Z,100197.72
2022-10-29T01:39:24.752Z,100204.19
2022-10-29T01:42:03.294Z,100195.25
2022-10-29T01:44:35.392Z,100193.25
2022-10-29T01:47:05.263Z,100185.97
2022-10-29T01:49:40.738Z,100173.00
2022-10-29T01:52:10.676Z,100178.63
2022-10-29T01:54:42.513Z,100182.78
2022-10-29T01:57:34.066Z,100202.81
2022-10-29T02:00:20.807Z,100172.63
2022-10-29T02:03:05.777Z,100173.94
2022-10-29T02:06:12.309Z,100177.56
2022-10-29T02:08:44.895Z,100159.03
2022-10-29T02:11:54.754Z,100150.41
2022-10-29T02:14:29.514Z,100155.84
2022-10-29T02:16:57.064Z,100135.16
2022-10-29T02:19:23.861Z,100127.53
2022-10-29T02:21:51.605Z,100149.44
2022-10-29T02:24:18.406Z,100148.13
2022-10-29T02:26:45.091Z,100138.38
2022-10-29T02:29:11.942Z,100143.16
2022-10-29T02:31:38.628Z,100136.06
2022-10-29T02:34:05.422Z,100127.75
2022-10-29T02:36:32.285Z,100118.31
2022-10-29T02:38:59.000Z,100108.19
2022-10-29T02:41:25.815Z,100098.72
2022-10-29T02:43:52.632Z,100106.53
2022-10-29T02:46:21.883Z,100112.50
2022-10-29T02:48:49.055Z,100108.38
2022-10-29T02:51:17.124Z,100130.09
2022-10-29T02:53:44.248Z,100138.56
2022-10-29T02:56:11.295Z,100132.72
2022-10-29T02:58:38.185Z,100143.03
2022-10-29T03:01:07.056Z,100136.53
2022-10-29T03:03:33.968Z,100150.97
2022-10-29T03:06:00.856Z,100163.38
2022-10-29T03:08:27.599Z,100147.88
2022-10-29T03:10:55.459Z,100143.06
2022-10-29T03:13:22.227Z,100149.34
2022-10-29T03:15:48.953Z,100125.72
2022-10-29T03:18:15.629Z,100136.97
2022-10-29T03:20:43.538Z,100114.34
2022-10-29T03:23:10.242Z,100135.78
2022-10-29T03:25:36.914Z,100149.31
2022-10-29T03:28:03.875Z,100136.78
2022-10-29T03:30:30.565Z,100144.59
2022-10-29T03:32:57.612Z,100137.72
2022-10-29T03:35:24.771Z,100156.81
2022-10-29T03:37:52.455Z,100148.34
2022-10-29T03:40:19.990Z,100139.72
2022-10-29T03:42:46.938Z,100132.94
2022-10-29T03:45:14.635Z,100133.13
2022-10-29T03:47:41.451Z,100128.16
2022-10-29T03:50:08.978Z,100121.94
2022-10-29T03:52:36.096Z,100148.03
2022-10-29T03:55:03.560Z,100158.41
2022-10-29T03:57:30.519Z,100175.56
2022-10-29T03:59:57.289Z,100135.25
2022-10-29T04:02:25.150Z,100120.66
2022-10-29T04:04:52.015Z,100129.94
2022-10-29T04:07:19.525Z,100109.50
2022-10-29T04:09:46.219Z,100119.75
2022-10-29T04:12:13.026Z,100122.06
2022-10-29T04:14:44.484Z,100138.53
2022-10-29T04:17:13.244Z,100124.38
2022-10-29T04:19:40.702Z,100134.88
2022-10-29T04:28:41.318Z,100117.34
2022-10-29T04:30:29.396Z,100126.09
2022-10-29T04:32:58.812Z,100121.59
2022-10-29T04:35:27.596Z,100109.31
2022-10-29T04:37:55.778Z,100104.19
2022-10-29T04:40:24.564Z,100076.25
2022-10-29T04:42:51.666Z,100101.00
2022-10-29T04:45:19.091Z,100075.72
2022-10-29T04:47:46.169Z,100058.47
2022-10-29T04:50:13.102Z,100073.72
2022-10-29T04:52:40.089Z,100083.03
2022-10-29T04:55:07.129Z,100120.84
2022-10-29T04:57:34.020Z,100147.59
2022-10-29T05:00:00.853Z,100141.56
2022-10-29T05:02:27.595Z,100175.94
2022-10-29T05:04:54.268Z,100166.34
2022-10-29T05:07:21.075Z,100132.38
2022-10-29T05:09:47.803Z,100141.13
2022-10-29T05:12:14.488Z,100122.84
2022-10-29T05:14:41.334Z,100157.06
2022-10-29T05:19:39.694Z,100139.22
2022-10-29T05:22:06.546Z,100133.25
2022-10-29T05:24:33.232Z,100141.50
2022-10-29T05:26:59.947Z,100133.13
2022-10-29T05:29:26.808Z,100159.06
2022-10-29T05:31:54.707Z,100147.09
2022-10-29T05:34:21.716Z,100171.47
2022-10-29T05:36:48.623Z,100166.38
2022-10-29T05:39:15.452Z,100139.75
2022-10-29T05:41:42.439Z,100178.66
2022-10-29T05:44:09.651Z,100158.38
2022-10-29T05:46:36.335Z,100181.63
2022-10-29T05:49:03.836Z,100222.59
2022-10-29T05:51:30.868Z,100205.66
2022-10-29T05:53:57.571Z,100205.22
2022-10-29T05:56:24.263Z,100223.16
2022-10-29T05:58:51.717Z,100189.31
2022-10-29T06:01:19.972Z,100210.91
2022-10-29T06:03:47.365Z,100217.34
2022-10-29T06:06:14.309Z,100199.91
2022-10-29T06:08:41.054Z,100243.03
2022-10-29T06:11:07.794Z,100242.84
2022-10-29T06:13:34.679Z,100274.81
2022-10-29T06:16:01.847Z,100289.91
2022-10-29T06:18:29.269Z,100285.09
2022-10-29T06:20:59.671Z,100255.25
2022-10-29T06:23:27.606Z,100219.25
2022-10-29T06:25:54.355Z,100235.69
2022-10-29T06:28:21.224Z,100251.13
2022-10-29T06:30:51.667Z,100242.97
2022-10-29T06:33:19.096Z,100272.50
2022-10-29T06:35:46.877Z,100285.09
2022-10-29T06:38:14.275Z,100283.44
2022-10-29T06:40:42.117Z,100286.59
2022-10-29T06:43:12.797Z,100292.38
2022-10-29T06:45:39.885Z,100296.88
2022-10-29T06:48:06.989Z,100289.75
2022-10-29T06:50:33.985Z,100289.06
2022-10-29T06:53:01.977Z,100241.94
2022-10-29T06:55:29.454Z,100277.09
2022-10-29T06:58:01.261Z,100297.50
2022-10-29T07:00:29.235Z,100254.72
2022-10-29T07:02:57.255Z,100274.59
2022-10-29T07:05:24.761Z,100282.22
2022-10-29T07:07:59.080Z,100254.00
2022-10-29T07:10:28.305Z,100260.63
2022-10-29T07:12:55.479Z,100238.25
2022-10-29T07:15:25.767Z,100217.00
2022-10-29T07:18:03.343Z,100206.03
2022-10-29T07:20:33.106Z,100223.56
2022-10-29T07:23:01.617Z,100271.44
2022-10-29T07:25:29.248Z,100297.81
2022-10-29T07:28:02.243Z,100307.13
2022-10-29T07:30:29.350Z,100293.72
2022-10-29T07:32:56.362Z,100302.06
2022-10-29T07:35:23.139Z,100313.31
2022-10-29T07:37:50.002Z,100313.84
2022-10-29T07:40:16.927Z,100304.53
2022-10-29T07:42:43.655Z,100324.59
2022-10-29T07:45:10.739Z,100331.06
2022-10-29T07:47:37.522Z,100341.69
2022-10-29T07:50:04.565Z,100349.31
2022-10-29T07:52:31.346Z,100362.41
2022-10-29T07:55:00.603Z,100370.22
2022-10-29T07:57:27.291Z,100365.41
2022-10-29T07:59:54.142Z,100366.41
2022-10-29T08:02:20.868Z,100367.28
2022-10-29T08:04:47.590Z,100370.59
2022-10-29T08:07:14.530Z,100352.16
2022-10-29T08:09:41.345Z,100371.88
2022-10-29T08:12:11.688Z,100334.09
2022-10-29T08:14:38.646Z,100365.09
2022-10-29T08:17:05.336Z,100380.31
2022-10-29T08:19:32.145Z,100367.56
2022-10-29T08:21:59.191Z,100362.41
2022-10-29T08:24:25.912Z,100372.66
2022-10-29T08:26:52.596Z,100383.81
2022-10-29T08:29:19.566Z,100396.75
2022-10-29T08:31:46.333Z,100396.94
2022-10-29T08:34:13.148Z,100411.84
2022-10-29T08:36:41.977Z,100415.69
2022-10-29T08:39:08.719Z,100402.09
2022-10-29T08:41:50.505Z,100398.00
2022-10-29T08:44:32.232Z,100382.22
2022-10-29T08:47:17.083Z,100379.47
2022-10-29T08:49:49.070Z,100378.16
2022-10-29T08:52:24.343Z,100389.97
2022-10-29T08:55:12.944Z,100392.78
2022-10-29T08:57:53.191Z,100402.13
2022-10-29T09:00:23.128Z,100408.34
2022-10-29T09:02:58.686Z,100417.28
2022-10-29T09:05:52.956Z,100429.25
2022-10-29T09:08:30.211Z,100427.78
2022-10-29T09:11:01.425Z,100422.66
2022-10-29T09:13:51.541Z,100409.56
2022-10-29T09:16:45.247Z,100404.25
2022-10-29T09:19:29.789Z,100411.38
2022-10-29T09:22:11.361Z,100415.50
2022-10-29T09:24:54.459Z,100417.31
2022-10-29T09:27:21.106Z,100431.78
2022-10-29T09:30:04.386Z,100409.88
2022-10-29T09:33:07.426Z,100438.13
2022-10-29T09:35:44.503Z,100433.69
2022-10-29T09:38:17.472Z,100431.69
2022-10-29T09:40:44.822Z,100424.91
2022-10-29T09:43:48.449Z,100425.47
2022-10-29T09:46:31.893Z,100439.38
2022-10-29T09:49:20.518Z,100441.03
2022-10-29T09:52:26.709Z,100435.56
2022-10-29T09:54:54.605Z,100442.72
2022-10-29T09:57:26.932Z,100443.03
2022-10-29T10:00:02.444Z,100432.84
2022-10-29T10:02:52.074Z,100439.25
2022-10-29T10:05:25.174Z,100434.91
2022-10-29T10:08:17.994Z,100447.06
2022-10-29T10:10:58.422Z,100436.47
2022-10-29T10:13:37.038Z,100429.72
2022-10-29T10:16:06.218Z,100425.19
2022-10-29T10:18:32.929Z,100438.19
2022-10-29T10:21:14.641Z,100431.38
2022-10-29T10:23:52.774Z,100436.06
2022-10-29T10:26:25.668Z,100441.06
2022-10-29T10:29:15.447Z,100428.84
2022-10-29T10:31:55.264Z,100436.03
2022-10-29T10:34:23.169Z,100436.91
2022-10-29T10:36:56.277Z,100436.38
2022-10-29T10:39:26.152Z,100461.28
2022-10-29T10:41:53.769Z,100466.94
2022-10-29T10:44:23.062Z,100469.09
2022-10-29T10:46:52.656Z,100462.41
2022-10-29T10:49:36.791Z,100480.41
2022-10-29T10:52:12.232Z,100473.72
2022-10-29T10:54:42.349Z,100483.03
2022-10-29T10:57:11.822Z,100477.88
2022-10-29T10:59:56.901Z,100482.25
2022-10-29T11:02:48.034Z,100478.44
2022-10-29T11:05:23.463Z,100457.66
2022-10-29T11:08:07.245Z,100449.69
2022-10-29T11:10:41.861Z,100471.81
2022-10-29T11:13:16.032Z,100480.63
2022-10-29T11:15:51.211Z,100478.63
2022-10-29T11:18:42.692Z,100485.38
2022-10-29T11:21:15.412Z,100504.28
2022-10-29T11:23:42.064Z,100500.13
2022-10-29T11:26:26.304Z,100470.69
2022-10-29T11:28:59.343Z,100481.47
2022-10-29T11:32:04.327Z,100473.13
2022-10-29T11:35:04.393Z,100476.13
2022-10-29T11:37:38.914Z,100464.03
2022-10-29T11:40:11.669Z,100445.38
2022-10-29T11:42:39.531Z,100460.00
2022-10-29T11:45:13.827Z,100442.91
2022-10-29T11:47:43.223Z,100444.94
2022-10-29T11:50:31.521Z,100454.59
2022-10-29T11:53:26.467Z,100450.97
2022-10-29T11:56:11.956Z,100457.13
2022-10-29T11:58:48.681Z,100449.88
2022-10-29T12:02:01.538Z,100443.69
2022-10-29T12:04:35.413Z,100418.69
2022-10-29T12:07:14.329Z,100419.47
2022-10-29T12:09:53.253Z,100432.47
2022-10-29T12:12:39.943Z,100430.00
2022-10-29T12:15:18.569Z,100424.56
2022-10-29T12:18:00.959Z,100415.56
2022-10-29T12:20:45.696Z,100401.44
2022-10-29T12:23:39.577Z,100423.19
2022-10-29T12:26:12.419Z,100421.84
2022-10-29T12:29:11.149Z,100416.66
2022-10-29T12:32:10.763Z,100405.00
2022-10-29T12:34:43.599Z,100413.06
2022-10-29T12:37:14.313Z,100400.75
2022-10-29T12:39:47.412Z,100396.16
2022-10-29T12:42:22.152Z,100383.19
2022-10-29T12:45:07.487Z,100385.22
2022-10-29T12:47:48.536Z,100385.69
2022-10-29T12:50:24.399Z,100397.16
2022-10-29T12:53:04.716Z,100388.22
2022-10-29T12:55:32.839Z,100388.88
2022-10-29T12:57:59.622Z,100392.00
2022-10-29T13:00:27.511Z,100392.03
2022-10-29T13:02:56.013Z,100390.88
2022-10-29T13:05:36.811Z,100389.50
2022-10-29T13:08:03.450Z,100402.78
2022-10-29T13:10:33.280Z,100402.63
2022-10-29T13:13:00.138Z,100397.50
2022-10-29T13:15:26.787Z,100402.44
2022-10-29T13:17:56.086Z,100398.91
2022-10-29T13:20:37.451Z,100406.16
2022-10-29T13:23:24.228Z,100390.69
2022-10-29T13:26:02.200Z,100390.56
2022-10-29T13:28:28.830Z,100390.00
2022-10-29T13:31:04.694Z,100382.13
2022-10-29T13:33:31.341Z,100388.53
2022-10-29T13:36:02.014Z,100368.00
2022-10-29T13:39:04.485Z,100383.88
2022-10-29T13:41:50.083Z,100370.00
2022-10-29T13:44:22.645Z,100366.50
2022-10-29T13:47:12.748Z,100366.72
2022-10-29T13:49:45.638Z,100355.69
2022-10-29T13:52:17.912Z,100360.34
2022-10-29T13:54:59.341Z,100373.91
2022-10-29T13:57:34.324Z,100370.13
2022-10-29T14:00:15.548Z,100375.22
2022-10-29T14:02:42.294Z,100387.94
2022-10-29T14:05:15.022Z,100379.66
2022-10-29T14:07:51.036Z,100383.03
2022-10-29T14:10:25.531Z,100381.03
2022-10-29T14:12:58.198Z,100388.41
2022-10-29T14:15:25.314Z,100397.78
2022-10-29T14:17:52.131Z,100390.66
2022-10-29T14:20:29.012Z,100398.44
2022-10-29T14:22:56.227Z,100396.94
2022-10-29T14:25:29.441Z,100411.06
2022-10-29T14:28:26.203Z,100406.16
2022-10-29T14:31:05.174Z,100406.50
2022-10-29T14:33:37.808Z,100402.03
2022-10-29T14:36:27.390Z,100396.75
2022-10-29T14:39:28.718Z,100402.94
2022-10-29T14:42:05.371Z,100396.13
2022-10-29T14:44:33.199Z,100396.75
2022-10-29T14:47:07.785Z,100398.91
2022-10-29T14:49:40.906Z,100396.66
2022-10-29T14:52:22.922Z,100410.94
2022-10-29T14:54:50.762Z,100409.03
2022-10-29T14:57:21.193Z,100410.63
2022-10-29T14:59:56.448Z,100409.13
2022-10-29T15:02:37.606Z,100414.75
2022-10-29T15:05:22.387Z,100414.72
2022-10-29T15:07:49.741Z,100412.56
2022-10-29T15:10:21.060Z,100400.41
2022-10-29T15:12:49.696Z,100400.25
2022-10-29T15:15:27.572Z,100404.53
2022-10-29T15:18:13.105Z,100401.03
2022-10-29T15:20:39.849Z,100420.66
2022-10-29T15:23:18.416Z,100409.63
2022-10-29T15:25:48.105Z,100408.81
2022-10-29T15:28:24.192Z,100408.84
2022-10-29T15:30:51.132Z,100414.19
2022-10-29T15:33:21.840Z,100403.13
2022-10-29T15:35:59.672Z,100409.47
2022-10-29T15:38:35.161Z,100408.94
2022-10-29T15:41:13.792Z,100422.16
2022-10-29T15:43:52.693Z,100420.44
2022-10-29T15:46:26.041Z,100414.41
2022-10-29T15:48:53.302Z,100423.72
2022-10-29T15:51:31.286Z,100437.13
2022-10-29T15:54:02.145Z,100424.69
2022-10-29T15:56:31.562Z,100424.56
2022-10-29T15:59:00.568Z,100429.63
2022-10-29T16:01:27.502Z,100429.47
2022-10-29T16:03:54.630Z,100428.94
2022-10-29T16:06:21.438Z,100429.75
2022-10-29T16:08:51.496Z,100415.09
2022-10-29T16:11:21.007Z,100414.88
2022-10-29T16:13:54.387Z,100422.75
2022-10-29T16:18:51.549Z,100432.91
2022-10-29T16:21:26.043Z,100430.28
2022-10-29T16:23:53.269Z,100424.28
2022-10-29T16:26:22.718Z,100429.66
2022-10-29T16:28:50.452Z,100432.47
2022-10-29T16:31:20.646Z,100440.13
2022-10-29T16:33:48.668Z,100452.13
2022-10-29T16:36:16.398Z,100449.09
2022-10-29T16:38:44.001Z,100445.44
2022-10-29T16:41:15.788Z,100445.44
2022-10-29T16:43:43.486Z,100425.22
2022-10-29T16:46:11.119Z,100440.03
2022-10-29T16:48:38.291Z,100437.72
2022-10-29T16:51:05.558Z,100455.00
2022-10-29T16:53:32.597Z,100458.31
2022-10-29T16:55:59.453Z,100475.59
2022-10-29T16:58:26.267Z,100455.50
2022-10-29T17:01:05.322Z,100455.50
2022-10-29T17:03:33.387Z,100456.63
2022-10-29T17:06:11.121Z,100459.00
2022-10-29T17:08:38.860Z,100470.44
2022-10-29T17:11:10.209Z,100462.66
2022-10-29T17:13:37.774Z,100448.69
2022-10-29T17:16:09.775Z,100454.50
2022-10-29T17:18:36.470Z,100461.84
2022-10-29T17:21:03.836Z,100462.31
2022-10-29T17:23:32.103Z,100475.28
2022-10-29T17:25:59.830Z,100467.31
2022-10-29T17:28:27.828Z,100477.28
2022-10-29T17:30:54.771Z,100477.44
2022-10-29T17:33:21.606Z,100484.94
2022-10-29T17:35:48.303Z,100478.91
2022-10-29T17:38:15.248Z,100477.75
2022-10-29T17:40:44.730Z,100470.75
2022-10-29T17:43:11.682Z,100468.06
2022-10-29T17:45:38.514Z,100472.72
2022-10-29T17:48:05.510Z,100476.53
2022-10-29T17:50:32.256Z,100476.72
2022-10-29T17:52:59.174Z,100469.06
2022-10-29T17:55:25.934Z,100475.53
2022-10-29T17:57:52.634Z,100485.19
2022-10-29T18:00:19.698Z,100487.66
2022-10-29T18:02:49.928Z,100481.50
2022-10-29T18:05:17.355Z,100493.63
2022-10-29T18:07:44.130Z,100492.78
2022-10-29T18:10:11.214Z,100496.03
2022-10-29T18:12:37.900Z,100490.81
2022-10-29T18:15:05.658Z,100491.59
2022-10-29T18:17:32.679Z,100502.06
2022-10-29T18:19:59.754Z,100485.78
2022-10-29T18:22:26.523Z,100503.25
2022-10-29T18:24:53.223Z,100496.44
2022-10-29T18:27:20.409Z,100488.13
2022-10-29T18:29:47.313Z,100487.63
2022-10-29T18:32:14.027Z,100494.59
2022-10-29T18:34:40.783Z,100498.78
2022-10-29T18:37:07.718Z,100501.59
2022-10-29T18:39:34.575Z,100483.34
2022-10-29T18:42:01.464Z,100505.91
2022-10-29T18:44:28.437Z,100508.28
2022-10-29T18:46:55.310Z,100506.66
2022-10-29T18:49:22.054Z,100513.81
2022-10-29T18:51:48.930Z,100516.31
2022-10-29T18:54:15.720Z,100511.53
2022-10-29T18:56:42.717Z,100509.69
2022-10-29T18:59:10.731Z,100511.38
2022-10-29T19:01:37.664Z,100510.97
2022-10-29T19:04:07.341Z,100512.00
2022-10-29T19:06:37.169Z,100515.16
2022-10-29T19:09:07.710Z,100517.13
2022-10-29T19:11:34.814Z,100527.25
2022-10-29T19:14:04.640Z,100521.63
2022-10-29T19:16:33.151Z,100526.44
2022-10-29T19:19:03.082Z,100532.25
2022-10-29T19:21:30.387Z,100528.44
2022-10-29T19:23:59.015Z,100520.97
2022-10-29T19:26:28.397Z,100507.84
2022-10-29T19:28:55.832Z,100517.78
2022-10-29T19:31:26.422Z,100522.09
2022-10-29T19:33:56.509Z,100539.34
2022-10-29T19:36:23.647Z,100546.34
2022-10-29T19:38:51.665Z,100548.28
2022-10-29T19:41:18.700Z,100544.91
2022-10-29T19:43:45.868Z,100554.94
2022-10-29T19:46:15.421Z,100549.94
2022-10-29T19:48:42.877Z,100555.69
2022-10-29T19:51:11.019Z,100543.97
2022-10-29T19:53:39.107Z,100549.19
2022-10-29T19:56:10.837Z,100559.47
2022-10-29T19:58:37.579Z,100542.59
2022-10-29T20:01:10.916Z,100554.69
2022-10-29T20:03:37.708Z,100565.97
2022-10-29T20:06:04.602Z,100554.16
2022-10-29T20:08:31.706Z,100554.69
2022-10-29T20:11:00.232Z,100551.25
2022-10-29T20:13:27.628Z,100558.41
2022-10-29T20:15:54.843Z,100556.13
2022-10-29T20:18:21.949Z,100543.84
2022-10-29T20:20:56.839Z,100537.81
2022-10-29T20:23:25.748Z,100563.53
2022-10-29T20:25:52.749Z,100567.19
2022-10-29T20:28:19.737Z,100568.66
2022-10-29T20:30:46.764Z,100569.06
2022-10-29T20:33:13.508Z,100559.47
2022-10-29T20:35:40.402Z,100568.44
2022-10-29T20:38:07.524Z,100562.31
2022-10-29T20:40:34.254Z,100569.25
2022-10-29T20:43:01.158Z,100563.44
2022-10-29T20:45:27.927Z,100565.13
2022-10-29T20:47:54.896Z,100554.88
2022-10-29T20:50:21.960Z,100569.47
2022-10-29T20:52:50.597Z,100563.00
2022-10-29T20:55:17.336Z,100577.72
2022-10-29T20:57:44.175Z,100578.97
2022-10-29T21:00:11.269Z,100567.91
2022-10-29T21:02:38.100Z,100570.59
2022-10-29T21:05:05.287Z,100581.78
2022-10-29T21:07:32.052Z,100586.75
2022-10-29T21:09:58.733Z,100590.91
2022-10-29T21:12:25.566Z,100593.31
2022-10-29T21:14:52.282Z,100590.50
2022-10-29T21:17:21.771Z,100588.84
2022-10-29T21:19:48.736Z,100587.81
2022-10-29T21:22:18.892Z,100597.78
2022-10-29T21:24:46.027Z,100596.13
2022-10-29T21:27:12.889Z,100607.38
2022-10-29T21:29:39.629Z,100602.53
2022-10-29T21:32:06.417Z,100599.94
2022-10-29T21:34:33.275Z,100607.84
2022-10-29T21:36:59.976Z,100606.41
2022-10-29T21:39:27.749Z,100604.22
2022-10-29T21:41:54.546Z,100606.63
2022-10-29T21:44:21.505Z,100597.03
2022-10-29T21:46:48.197Z,100594.28
2022-10-29T21:49:14.977Z,100593.56
2022-10-29T21:51:42.593Z,100586.69
2022-10-29T21:54:09.378Z,100597.31
2022-10-29T21:56:36.160Z,100604.41
2022-10-29T21:59:02.887Z,100603.38
2022-10-29T22:01:29.723Z,100596.56
2022-10-29T22:03:56.645Z,100603.88
2022-10-29T22:06:25.934Z,100608.66
2022-10-29T22:08:55.033Z,100589.16
2022-10-29T22:11:23.007Z,100590.63
2022-10-29T22:13:50.086Z,100598.22
2022-10-29T22:16:16.874Z,100611.19
2022-10-29T22:18:43.889Z,100608.03
2022-10-29T22:21:18.100Z,100619.09
2022-10-29T22:23:56.383Z,100620.13
2022-10-29T22:26:28.279Z,100611.69
2022-10-29T22:28:55.574Z,100628.97
2022-10-29T22:31:23.698Z,100626.09
2022-10-29T22:33:51.113Z,100622.66
2022-10-29T22:36:23.255Z,100620.97
2022-10-29T22:38:57.703Z,100625.97
2022-10-29T22:41:26.183Z,100636.00
2022-10-29T22:43:53.174Z,100624.09
2022-10-29T22:46:22.093Z,100625.16
2022-10-29T22:48:49.330Z,100617.25
2022-10-29T22:51:27.138Z,100614.84
2022-10-29T22:53:54.887Z,100620.69
2022-10-29T22:56:24.798Z,100620.91
2022-10-29T22:58:52.405Z,100605.56
2022-10-29T23:01:21.739Z,100623.59
2022-10-29T23:03:48.635Z,100619.25
2022-10-29T23:06:18.152Z,100622.06
2022-10-29T23:08:45.662Z,100628.19
2022-10-29T23:11:19.659Z,100624.25
2022-10-29T23:13:52.400Z,100618.59
2022-10-29T23:16:19.587Z,100625.78
2022-10-29T23:18:50.352Z,100629.31
2022-10-29T23:21:17.744Z,100614.63
2022-10-29T23:23:44.875Z,100614.28
2022-10-29T23:26:11.969Z,100604.19
2022-10-29T23:28:40.048Z,100597.59
2022-10-29T23:31:11.325Z,100589.13
2022-10-29T23:33:38.662Z,100593.84
2022-10-29T23:36:07.860Z,100595.50
2022-10-29T23:38:35.403Z,100595.81
2022-10-29T23:41:02.867Z,100591.72
2022-10-29T23:43:30.277Z,100591.91
2022-10-29T23:45:57.370Z,100587.34
2022-10-29T23:48:24.674Z,100572.53
2022-10-29T23:50:51.867Z,100592.16
2022-10-29T23:53:18.911Z,100581.16
2022-10-29T23:55:46.400Z,100565.31
2022-10-29T23:58:14.131Z,100595.13
